createdAt,value
2023-01-01T00:01:45.904Z,5.60
2023-01-01T00:04:16.029Z,5.23
2023-01-01T00:06:46.245Z,5.00
2023-01-01T00:09:31.336Z,4.70
2023-01-01T00:11:58.264Z,6.30
2023-01-01T00:14:27.964Z,5.83
2023-01-01T00:16:56.596Z,5.90
2023-01-01T00:19:24.960Z,5.23
2023-01-01T00:21:51.898Z,5.90
2023-01-01T00:24:18.788Z,5.20
2023-01-01T00:26:45.991Z,5.47
2023-01-01T00:29:12.909Z,5.40
2023-01-01T00:31:41.305Z,5.20
2023-01-01T00:34:10.565Z,7.13
2023-01-01T00:36:37.691Z,5.23
2023-01-01T00:39:04.885Z,5.03
2023-01-01T00:41:31.838Z,4.60
2023-01-01T00:43:59.100Z,4.37
2023-01-01T00:46:26.034Z,4.80
2023-01-01T00:48:54.250Z,4.70
2023-01-01T00:51:21.354Z,4.03
2023-01-01T00:53:48.240Z,4.63
2023-01-01T00:56:15.121Z,5.00
2023-01-01T00:58:42.022Z,4.13
2023-01-01T01:01:09.189Z,4.60
2023-01-01T01:03:38.231Z,3.97
2023-01-01T01:06:15.049Z,4.57
2023-01-01T01:08:45.487Z,4.50
2023-01-01T01:11:16.319Z,4.67
2023-01-01T01:13:45.322Z,3.67
2023-01-01T01:16:15.979Z,3.90
2023-01-01T01:18:43.045Z,3.80
2023-01-01T01:21:15.242Z,3.67
2023-01-01T01:23:42.155Z,4.37
2023-01-01T01:26:11.565Z,3.97
2023-01-01T01:28:42.576Z,4.27
2023-01-01T01:31:13.202Z,4.13
2023-01-01T01:33:42.552Z,3.70
2023-01-01T01:36:12.260Z,3.73
2023-01-01T01:38:39.364Z,3.70
2023-01-01T01:41:06.377Z,4.20
2023-01-01T01:43:55.682Z,4.00
2023-01-01T01:46:32.377Z,4.30
2023-01-01T01:49:04.944Z,4.37
2023-01-01T01:51:39.200Z,3.83
2023-01-01T01:54:14.609Z,4.30
2023-01-01T01:56:49.036Z,4.47
2023-01-01T01:59:19.961Z,3.57
2023-01-01T02:01:46.979Z,4.20
2023-01-01T02:04:17.812Z,4.07
2023-01-01T02:06:47.964Z,4.90
2023-01-01T02:09:15.099Z,5.27
2023-01-01T02:11:42.004Z,5.23
2023-01-01T02:14:09.132Z,5.53
2023-01-01T02:16:43.760Z,5.77
2023-01-01T02:19:24.244Z,5.13
2023-01-01T02:22:06.428Z,5.73
2023-01-01T02:25:10.975Z,4.90
2023-01-01T02:27:51.799Z,4.63
2023-01-01T02:30:20.740Z,4.67
2023-01-01T02:32:52.262Z,4.80
2023-01-01T02:35:35.490Z,5.17
2023-01-01T02:38:09.179Z,5.07
2023-01-01T02:40:43.748Z,4.83
2023-01-01T02:43:10.682Z,4.77
2023-01-01T02:45:39.031Z,4.37
2023-01-01T02:48:27.312Z,5.00
2023-01-01T02:51:01.128Z,4.17
2023-01-01T02:53:37.350Z,4.80
2023-01-01T02:56:13.517Z,4.47
2023-01-01T02:59:11.351Z,4.00
2023-01-01T03:01:48.802Z,4.67
2023-01-01T03:04:26.367Z,4.50
2023-01-01T03:07:05.304Z,4.03
2023-01-01T03:09:44.703Z,4.50
2023-01-01T03:12:25.991Z,5.53
2023-01-01T03:15:01.462Z,4.60
2023-01-01T03:17:34.785Z,5.00
2023-01-01T03:20:08.501Z,5.10
2023-01-01T03:25:14.812Z,4.47
2023-01-01T03:27:49.161Z,4.60
2023-01-01T03:30:20.078Z,5.63
2023-01-01T03:33:00.106Z,4.77
2023-01-01T03:35:35.310Z,4.80
2023-01-01T03:38:10.758Z,5.40
2023-01-01T03:40:40.572Z,5.43
2023-01-01T03:43:14.537Z,4.90
2023-01-01T03:45:47.699Z,5.17
2023-01-01T03:48:14.851Z,3.90
2023-01-01T03:50:58.602Z,4.47
2023-01-01T03:53:38.562Z,4.43
2023-01-01T03:56:17.549Z,4.30
2023-01-01T03:58:51.325Z,4.40
2023-01-01T04:01:26.603Z,4.80
2023-01-01T04:03:55.535Z,4.10
2023-01-01T04:06:23.067Z,3.83
2023-01-01T04:08:58.171Z,4.43
2023-01-01T04:11:49.175Z,4.47
2023-01-01T04:14:28.230Z,4.50
2023-01-01T04:16:55.888Z,4.13
2023-01-01T04:19:23.289Z,4.00
2023-01-01T04:21:50.188Z,4.03
2023-01-01T04:24:18.448Z,4.57
2023-01-01T04:26:45.473Z,3.97
2023-01-01T04:29:12.387Z,4.40
2023-01-01T04:31:39.277Z,3.83
2023-01-01T04:34:06.222Z,3.57
2023-01-01T04:36:34.306Z,3.83
2023-01-01T04:39:01.480Z,4.67
2023-01-01T04:41:29.817Z,3.53
2023-01-01T04:43:56.735Z,3.67
2023-01-01T04:46:24.132Z,3.73
2023-01-01T04:48:51.538Z,3.43
2023-01-01T04:51:21.300Z,3.07
2023-01-01T04:53:48.514Z,3.57
2023-01-01T04:56:19.269Z,3.33
2023-01-01T04:58:48.733Z,3.13
2023-01-01T05:01:18.808Z,2.73
2023-01-01T05:03:46.622Z,2.90
2023-01-01T05:06:14.368Z,3.17
2023-01-01T05:08:44.536Z,3.53
2023-01-01T05:11:15.204Z,3.00
2023-01-01T05:13:45.371Z,3.10
2023-01-01T05:16:15.948Z,3.40
2023-01-01T05:18:44.322Z,2.87
2023-01-01T05:21:15.678Z,3.03
2023-01-01T05:23:42.760Z,3.27
2023-01-01T05:26:11.384Z,3.10
2023-01-01T05:28:38.905Z,3.40
2023-01-01T05:31:08.088Z,3.10
2023-01-01T05:33:37.405Z,3.27
2023-01-01T05:36:07.939Z,3.10
2023-01-01T05:38:36.014Z,2.97
2023-01-01T05:41:07.052Z,3.00
2023-01-01T05:43:34.194Z,3.63
2023-01-01T05:46:02.601Z,2.90
2023-01-01T05:48:29.736Z,3.20
2023-01-01T05:51:04.031Z,2.77
2023-01-01T05:53:31.158Z,3.00
2023-01-01T05:55:58.670Z,2.50
2023-01-01T05:58:26.440Z,2.53
2023-01-01T06:00:53.766Z,2.87
2023-01-01T06:03:21.058Z,3.50
2023-01-01T06:05:47.995Z,2.53
2023-01-01T06:08:16.210Z,2.97
2023-01-01T06:10:43.117Z,2.50
2023-01-01T06:13:13.457Z,2.50
2023-01-01T06:15:40.602Z,2.27
2023-01-01T06:18:07.452Z,2.50
2023-01-01T06:20:34.362Z,2.20
2023-01-01T06:23:01.215Z,2.53
2023-01-01T06:25:29.382Z,2.77
2023-01-01T06:27:56.265Z,2.50
2023-01-01T06:30:23.147Z,2.47
2023-01-01T06:32:50.047Z,2.47
2023-01-01T06:35:16.922Z,2.40
2023-01-01T06:37:43.830Z,2.47
2023-01-01T06:40:11.386Z,1.70
2023-01-01T06:42:39.640Z,1.87
2023-01-01T06:45:08.727Z,2.17
2023-01-01T06:47:36.271Z,2.07
2023-01-01T06:50:04.154Z,1.53
2023-01-01T06:52:31.526Z,1.47
2023-01-01T06:54:58.436Z,1.83
2023-01-01T06:57:25.354Z,1.53
2023-01-01T06:59:53.601Z,1.67
2023-01-01T07:02:20.690Z,1.50
2023-01-01T07:04:47.984Z,1.60
2023-01-01T07:07:14.853Z,1.47
2023-01-01T07:09:41.685Z,1.73
2023-01-01T07:12:08.701Z,2.00
2023-01-01T07:14:35.621Z,1.60
2023-01-01T07:17:03.840Z,1.70
2023-01-01T07:19:30.732Z,1.97
2023-01-01T07:21:57.742Z,1.83
2023-01-01T07:24:24.668Z,1.60
2023-01-01T07:26:51.640Z,1.70
2023-01-01T07:29:18.599Z,1.80
2023-01-01T07:31:45.811Z,1.50
2023-01-01T07:34:19.672Z,1.60
2023-01-01T07:36:46.937Z,1.83
2023-01-01T07:39:13.852Z,1.70
2023-01-01T07:41:40.727Z,1.23
2023-01-01T07:44:07.664Z,1.80
2023-01-01T07:46:35.973Z,1.80
2023-01-01T07:49:04.133Z,1.50
2023-01-01T07:51:32.434Z,1.27
2023-01-01T07:54:05.794Z,1.50
2023-01-01T07:56:34.964Z,1.50
2023-01-01T07:59:01.871Z,1.60
2023-01-01T08:01:28.883Z,1.70
2023-01-01T08:03:55.914Z,1.50
2023-01-01T08:06:22.833Z,1.30
2023-01-01T08:08:51.069Z,1.40
2023-01-01T08:11:17.973Z,2.00
2023-01-01T08:13:44.946Z,1.67
2023-01-01T08:16:12.005Z,1.50
2023-01-01T08:18:38.951Z,1.23
2023-01-01T08:21:06.214Z,1.50
2023-01-01T08:23:33.149Z,1.57
2023-01-01T08:26:03.068Z,1.33
2023-01-01T08:28:30.991Z,1.63
2023-01-01T08:30:59.177Z,1.60
2023-01-01T08:33:26.238Z,1.53
2023-01-01T08:35:54.553Z,1.57
2023-01-01T08:38:22.214Z,1.90
2023-01-01T08:40:49.262Z,1.70
2023-01-01T08:43:17.750Z,1.67
2023-01-01T08:45:45.666Z,1.40
2023-01-01T08:48:12.535Z,1.93
2023-01-01T08:50:39.501Z,1.90
2023-01-01T08:53:06.385Z,1.67
2023-01-01T08:55:33.233Z,1.67
2023-01-01T08:58:00.131Z,1.73
2023-01-01T09:00:28.397Z,1.60
2023-01-01T09:02:55.434Z,1.80
2023-01-01T09:05:22.414Z,1.60
2023-01-01T09:07:49.284Z,1.90
2023-01-01T09:10:16.303Z,1.37
2023-01-01T09:12:43.489Z,1.77
2023-01-01T09:15:16.631Z,1.87
2023-01-01T09:17:44.940Z,1.50
2023-01-01T09:20:12.132Z,1.50
2023-01-01T09:22:39.078Z,1.50
2023-01-01T09:25:07.679Z,1.27
2023-01-01T09:27:34.570Z,1.47
2023-01-01T09:30:01.495Z,1.20
2023-01-01T09:32:28.440Z,1.27
2023-01-01T09:34:57.430Z,1.10
2023-01-01T09:37:24.397Z,0.90
2023-01-01T09:39:51.472Z,0.90
2023-01-01T09:42:35.668Z,1.07
2023-01-01T09:45:25.339Z,1.10
2023-01-01T09:47:57.881Z,0.90
2023-01-01T09:50:39.518Z,0.70
2023-01-01T09:53:12.552Z,1.30
2023-01-01T09:55:46.151Z,0.90
2023-01-01T09:58:13.798Z,0.80
2023-01-01T10:00:46.328Z,0.97
2023-01-01T10:03:38.069Z,1.13
2023-01-01T10:06:21.094Z,1.20
2023-01-01T10:09:07.409Z,0.93
2023-01-01T10:11:51.921Z,1.10
2023-01-01T10:14:28.625Z,1.40
2023-01-01T10:16:59.165Z,1.10
2023-01-01T10:19:34.803Z,1.10
2023-01-01T10:22:11.284Z,1.07
2023-01-01T10:24:46.600Z,0.97
2023-01-01T10:27:29.363Z,1.07
2023-01-01T10:30:03.365Z,0.73
2023-01-01T10:32:34.939Z,1.20
2023-01-01T10:35:10.929Z,0.70
2023-01-01T10:37:40.134Z,0.57
2023-01-01T10:40:17.674Z,0.73
2023-01-01T10:42:49.987Z,0.50
2023-01-01T10:45:23.983Z,0.80
2023-01-01T10:48:17.165Z,0.60
2023-01-01T10:50:49.717Z,0.73
2023-01-01T10:53:27.207Z,0.80
2023-01-01T10:56:08.415Z,0.70
2023-01-01T10:58:45.513Z,0.90
2023-01-01T11:01:20.808Z,1.07
2023-01-01T11:04:00.756Z,0.93
2023-01-01T11:06:32.788Z,1.23
2023-01-01T11:09:07.064Z,1.13
2023-01-01T11:11:42.678Z,1.27
2023-01-01T11:14:22.132Z,1.10
2023-01-01T11:16:49.841Z,0.90
2023-01-01T11:19:24.550Z,1.53
2023-01-01T11:21:51.445Z,1.63
2023-01-01T11:24:22.829Z,1.00
2023-01-01T11:26:54.827Z,1.60
2023-01-01T11:29:28.633Z,0.97
2023-01-01T11:32:00.654Z,1.30
2023-01-01T11:34:34.332Z,1.43
2023-01-01T11:37:15.906Z,1.33
2023-01-01T11:39:48.890Z,1.40
2023-01-01T11:42:22.244Z,1.80
2023-01-01T11:44:54.268Z,1.30
2023-01-01T11:47:29.016Z,1.10
2023-01-01T11:50:17.927Z,1.17
2023-01-01T11:52:47.925Z,1.33
2023-01-01T11:55:35.375Z,1.43
2023-01-01T11:58:19.628Z,1.00
2023-01-01T12:00:52.369Z,1.23
2023-01-01T12:03:33.134Z,1.03
2023-01-01T12:06:08.670Z,1.10
2023-01-01T12:08:41.905Z,1.00
2023-01-01T12:11:23.486Z,1.17
2023-01-01T12:13:59.651Z,1.10
2023-01-01T12:16:45.415Z,1.40
2023-01-01T12:19:21.710Z,1.40
2023-01-01T12:21:54.845Z,1.50
2023-01-01T12:24:22.169Z,1.20
2023-01-01T12:27:14.141Z,0.97
2023-01-01T12:30:23.920Z,1.17
2023-01-01T12:33:13.885Z,1.47
2023-01-01T12:36:00.830Z,1.20
2023-01-01T12:39:07.597Z,1.73
2023-01-01T12:41:47.174Z,1.30
2023-01-01T12:44:28.511Z,1.73
2023-01-01T12:47:07.614Z,1.37
2023-01-01T12:50:04.559Z,1.60
2023-01-01T12:52:48.265Z,1.80
2023-01-01T12:56:03.661Z,1.67
2023-01-01T12:58:35.964Z,1.60
2023-01-01T13:01:12.639Z,1.90
2023-01-01T13:03:50.236Z,1.50
2023-01-01T13:06:28.331Z,1.90
2023-01-01T13:09:06.814Z,1.73
2023-01-01T13:11:41.381Z,1.63
2023-01-01T13:14:11.690Z,1.23
2023-01-01T13:16:42.425Z,1.70
2023-01-01T13:19:27.094Z,2.30
2023-01-01T13:21:54.112Z,1.80
2023-01-01T13:24:24.726Z,1.70
2023-01-01T13:26:53.046Z,1.67
2023-01-01T13:29:35.324Z,1.87
2023-01-01T13:32:12.499Z,1.27
2023-01-01T13:35:00.110Z,1.43
2023-01-01T13:37:45.194Z,1.90
2023-01-01T13:40:51.212Z,1.60
2023-01-01T13:43:28.154Z,1.70
2023-01-01T13:46:13.759Z,1.60
2023-01-01T13:49:16.531Z,2.10
2023-01-01T13:52:09.622Z,1.87
2023-01-01T13:55:17.602Z,1.80
2023-01-01T13:58:50.828Z,1.80
2023-01-01T14:01:44.519Z,2.30
2023-01-01T14:04:34.451Z,1.90
2023-01-01T14:07:40.870Z,2.30
2023-01-01T14:10:23.077Z,2.40
2023-01-01T14:12:51.958Z,2.30
2023-01-01T14:15:28.489Z,1.83
2023-01-01T14:18:00.104Z,2.07
2023-01-01T14:20:39.848Z,2.03
2023-01-01T14:23:15.164Z,1.90
2023-01-01T14:25:43.924Z,2.20
2023-01-01T14:28:20.049Z,2.03
2023-01-01T14:30:47.792Z,2.43
2023-01-01T14:33:24.706Z,2.00
2023-01-01T14:35:54.146Z,2.03
2023-01-01T14:38:27.281Z,2.73
2023-01-01T14:41:13.661Z,1.80
2023-01-01T14:43:45.049Z,2.43
2023-01-01T14:46:16.833Z,1.90
2023-01-01T14:48:47.065Z,1.80
2023-01-01T14:51:21.721Z,2.17
2023-01-01T14:53:51.980Z,1.97
2023-01-01T14:56:26.013Z,2.30
2023-01-01T14:58:53.641Z,2.10
2023-01-01T15:01:25.987Z,2.30
2023-01-01T15:04:02.284Z,2.10
2023-01-01T15:06:32.666Z,2.03
2023-01-01T15:08:59.669Z,2.67
2023-01-01T15:11:29.345Z,1.90
2023-01-01T15:14:00.235Z,2.30
2023-01-01T15:16:33.217Z,2.40
2023-01-01T15:19:17.735Z,2.00
2023-01-01T15:21:46.299Z,2.40
2023-01-01T15:24:17.542Z,2.00
2023-01-01T15:26:51.838Z,2.60
2023-01-01T15:29:28.927Z,2.10
2023-01-01T15:32:00.480Z,2.90
2023-01-01T15:34:32.434Z,2.20
2023-01-01T15:37:14.206Z,2.63
2023-01-01T15:39:50.965Z,2.33
2023-01-01T15:42:33.510Z,2.63
2023-01-01T15:45:20.383Z,2.00
2023-01-01T15:47:49.003Z,2.27
2023-01-01T15:50:23.842Z,2.37
2023-01-01T15:52:57.613Z,2.30
2023-01-01T15:55:29.569Z,2.17
2023-01-01T15:57:57.844Z,2.30
2023-01-01T16:00:29.193Z,2.30
2023-01-01T16:03:02.224Z,2.67
2023-01-01T16:05:29.792Z,2.43
2023-01-01T16:08:03.805Z,3.10
2023-01-01T16:10:31.949Z,2.53
2023-01-01T16:12:59.154Z,2.33
2023-01-01T16:15:26.928Z,2.97
2023-01-01T16:17:55.055Z,2.47
2023-01-01T16:20:22.489Z,2.90
2023-01-01T16:22:49.420Z,2.63
2023-01-01T16:25:21.144Z,2.63
2023-01-01T16:27:48.683Z,2.87
2023-01-01T16:30:16.222Z,3.47
2023-01-01T16:32:43.185Z,3.37
2023-01-01T16:35:13.513Z,3.00
2023-01-01T16:37:40.408Z,2.70
2023-01-01T16:40:09.501Z,3.20
2023-01-01T16:42:37.751Z,3.50
2023-01-01T16:45:05.901Z,3.43
2023-01-01T16:47:32.798Z,3.20
2023-01-01T16:49:59.671Z,3.40
2023-01-01T16:52:31.350Z,3.73
2023-01-01T16:55:00.438Z,3.37
2023-01-01T16:57:27.321Z,3.27
2023-01-01T16:59:56.262Z,3.87
2023-01-01T17:02:23.302Z,3.33
2023-01-01T17:04:50.308Z,3.93
2023-01-01T17:07:17.169Z,4.20
2023-01-01T17:09:44.020Z,3.30
2023-01-01T17:12:10.992Z,3.33
2023-01-01T17:14:37.873Z,3.50
2023-01-01T17:17:06.058Z,3.70
2023-01-01T17:19:32.943Z,3.90
2023-01-01T17:22:00.185Z,4.13
2023-01-01T17:24:27.404Z,3.83
2023-01-01T17:26:55.276Z,3.53
2023-01-01T17:29:23.409Z,3.63
2023-01-01T17:31:50.810Z,3.17
2023-01-01T17:34:19.162Z,3.60
2023-01-01T17:36:46.449Z,3.90
2023-01-01T17:39:15.612Z,3.70
2023-01-01T17:41:44.372Z,3.57
2023-01-01T17:44:11.793Z,3.90
2023-01-01T17:46:39.766Z,3.77
2023-01-01T17:49:08.787Z,4.07
2023-01-01T17:51:37.372Z,3.90
2023-01-01T17:54:06.856Z,3.73
2023-01-01T17:56:33.753Z,4.17
2023-01-01T17:59:00.615Z,4.57
2023-01-01T18:01:30.965Z,4.03
2023-01-01T18:04:01.795Z,3.87
2023-01-01T18:06:30.964Z,4.17
2023-01-01T18:09:01.977Z,4.17
2023-01-01T18:11:31.634Z,4.23
2023-01-01T18:14:01.825Z,4.03
2023-01-01T18:16:30.275Z,4.30
2023-01-01T18:19:00.869Z,4.57
2023-01-01T18:21:28.287Z,4.77
2023-01-01T18:23:57.547Z,6.43
2023-01-01T18:26:28.999Z,5.67
2023-01-01T18:28:58.775Z,5.97
2023-01-01T18:31:28.922Z,7.10
2023-01-01T18:33:56.583Z,6.60
2023-01-01T18:36:27.403Z,5.20
2023-01-01T18:38:58.360Z,5.30
2023-01-01T18:41:46.037Z,5.00
2023-01-01T18:44:20.672Z,5.07
2023-01-01T18:46:55.742Z,4.87
2023-01-01T18:49:25.376Z,5.00
2023-01-01T18:51:58.700Z,4.50
2023-01-01T18:54:25.951Z,5.10
2023-01-01T18:57:09.863Z,5.87
2023-01-01T18:59:37.599Z,5.07
2023-01-01T19:02:22.758Z,5.13
2023-01-01T19:04:50.391Z,4.70
2023-01-01T19:07:17.516Z,5.00
2023-01-01T19:09:44.540Z,4.93
2023-01-01T19:12:18.898Z,4.83
2023-01-01T19:14:46.757Z,5.50
2023-01-01T19:17:20.766Z,4.97
2023-01-01T19:19:48.415Z,4.60
2023-01-01T19:22:29.690Z,4.93
2023-01-01T19:24:56.704Z,5.17
2023-01-01T19:27:25.136Z,5.07
2023-01-01T19:29:52.797Z,6.13
2023-01-01T19:32:21.228Z,5.97
2023-01-01T19:34:48.131Z,5.60
2023-01-01T19:37:15.104Z,5.90
2023-01-01T19:39:42.509Z,5.10
2023-01-01T19:42:10.281Z,4.80
2023-01-01T19:44:38.680Z,5.20
2023-01-01T19:47:05.781Z,4.47
2023-01-01T19:49:32.796Z,4.70
2023-01-01T19:51:59.725Z,4.90
2023-01-01T19:54:26.713Z,4.83
2023-01-01T19:56:53.571Z,4.60
2023-01-01T19:59:20.583Z,4.57
2023-01-01T20:02:09.945Z,4.60
2023-01-01T20:04:35.803Z,3.97
2023-01-01T20:07:02.793Z,4.30
2023-01-01T20:09:29.787Z,4.37
2023-01-01T20:11:56.620Z,4.90
2023-01-01T20:14:23.470Z,4.37
2023-01-01T20:16:53.287Z,3.80
2023-01-01T20:19:20.354Z,3.23
2023-01-01T20:22:05.701Z,3.60
2023-01-01T20:24:32.642Z,3.60
2023-01-01T20:27:01.353Z,3.10
2023-01-01T20:29:28.361Z,3.50
2023-01-01T20:31:58.903Z,3.30
2023-01-01T20:34:26.149Z,4.00
2023-01-01T20:37:11.964Z,3.70
2023-01-01T20:39:39.145Z,3.33
2023-01-01T20:42:06.113Z,3.40
2023-01-01T20:44:33.042Z,3.57
2023-01-01T20:47:01.278Z,3.50
2023-01-01T20:49:28.134Z,3.50
2023-01-01T20:51:55.082Z,3.27
2023-01-01T20:54:23.387Z,3.13
2023-01-01T20:56:50.832Z,3.30
2023-01-01T20:59:34.875Z,3.53
2023-01-01T21:02:04.654Z,2.83
2023-01-01T21:04:31.865Z,3.00
2023-01-01T21:06:59.007Z,3.40
2023-01-01T21:09:25.905Z,3.00
2023-01-01T21:11:53.045Z,2.80
2023-01-01T21:14:24.195Z,2.77
2023-01-01T21:16:52.061Z,2.60
2023-01-01T21:19:26.352Z,2.80
2023-01-01T21:21:56.796Z,2.93
2023-01-01T21:24:28.942Z,2.90
2023-01-01T21:27:05.481Z,2.43
2023-01-01T21:29:33.364Z,2.23
2023-01-01T21:32:18.277Z,2.63
2023-01-01T21:34:49.004Z,2.33
2023-01-01T21:37:41.577Z,2.30
2023-01-01T21:40:37.419Z,2.43
2023-01-01T21:43:33.435Z,2.77
2023-01-01T21:46:18.472Z,3.00
2023-01-01T21:48:57.847Z,2.80
2023-01-01T21:51:30.278Z,2.40
2023-01-01T21:54:17.261Z,2.83
2023-01-01T21:56:53.193Z,2.50
2023-01-01T21:59:32.381Z,2.63
2023-01-01T22:02:31.689Z,2.30
2023-01-01T22:05:15.420Z,3.00
2023-01-01T22:08:02.608Z,3.23
2023-01-01T22:10:35.911Z,2.80
2023-01-01T22:13:03.142Z,2.80
2023-01-01T22:15:38.586Z,3.20
2023-01-01T22:18:24.087Z,2.90
2023-01-01T22:20:51.981Z,2.30
2023-01-01T22:23:37.275Z,3.00
2023-01-01T22:26:14.138Z,2.93
2023-01-01T22:28:44.383Z,2.67
2023-01-01T22:31:18.240Z,2.97
2023-01-01T22:33:47.192Z,2.80
2023-01-01T22:36:17.943Z,3.43
2023-01-01T22:38:46.502Z,3.13
2023-01-01T22:41:14.944Z,3.07
2023-01-01T22:43:45.825Z,2.90
2023-01-01T22:46:26.063Z,3.27
2023-01-01T22:48:57.967Z,3.10
2023-01-01T22:51:31.900Z,2.90
2023-01-01T22:54:00.129Z,2.57
2023-01-01T22:56:26.988Z,3.13
2023-01-01T22:58:57.309Z,3.00
2023-01-01T23:01:24.995Z,3.10
2023-01-01T23:03:52.111Z,3.30
2023-01-01T23:06:19.581Z,3.43
2023-01-01T23:08:46.958Z,3.70
2023-01-01T23:11:15.324Z,2.90
2023-01-01T23:14:01.213Z,3.17
2023-01-01T23:16:28.355Z,3.03
2023-01-01T23:18:55.288Z,2.53
2023-01-01T23:21:27.160Z,3.43
2023-01-01T23:23:57.194Z,3.07
2023-01-01T23:26:26.257Z,2.63
2023-01-01T23:28:54.932Z,3.17
2023-01-01T23:31:25.913Z,3.97
2023-01-01T23:33:54.875Z,3.73
2023-01-01T23:36:22.464Z,3.20
2023-01-01T23:38:49.414Z,3.10
2023-01-01T23:41:17.291Z,3.00
2023-01-01T23:43:45.515Z,3.63
2023-01-01T23:46:13.666Z,3.70
2023-01-01T23:48:42.936Z,3.70
2023-01-01T23:51:10.282Z,3.33
2023-01-01T23:53:37.187Z,3.80
2023-01-01T23:56:04.720Z,3.20
2023-01-01T23:58:31.603Z,3.17
